Time;durP1;ratioP1;P1;durP2;ratioP2;P2;SDS_P1;SDS_P2;PMS_P1;PMS_P2;Temp;Humidity;BMP_temperature;BMP_pressure;BME280_temperature;BME280_humidity;BME280_pressure;Samples;Min_cycle;Max_cycle;Signal;HPM_P1;HPM_P2
2023/05/25 00:01:47;;;;;;;17.48;13.13;;;;;;;17.58;67.90;99302.56;4329483;33;33999;-90
2023/05/25 00:04:18;;;;;;;18.48;14.05;;;;;;;17.30;69.16;99302.06;4315978;33;34284;-90
2023/05/25 00:06:46;;;;;;;17.33;13.35;;;;;;;17.32;68.50;99302.94;4326649;33;34799;-90
2023/05/25 00:09:14;;;;;;;19.37;14.40;;;;;;;17.36;68.65;99307.25;4328777;33;34007;-89
2023/05/25 00:11:42;;;;;;;17.75;14.07;;;;;;;17.18;69.20;99298.72;4315054;33;32505;-88
2023/05/25 00:14:09;;;;;;;19.20;14.52;;;;;;;16.96;70.15;99305.94;4319283;33;34537;-89
2023/05/25 00:16:39;;;;;;;18.65;14.70;;;;;;;17.12;69.61;99305.78;4317710;33;35104;-89
2023/05/25 00:19:09;;;;;;;19.30;14.82;;;;;;;16.88;70.55;99299.94;4329085;33;33799;-87
2023/05/25 00:21:38;;;;;;;18.75;14.57;;;;;;;17.17;69.40;99298.75;4319841;33;35056;-87
2023/05/25 00:24:06;;;;;;;19.45;14.82;;;;;;;17.44;68.25;99301.00;4329030;33;35043;-87
2023/05/25 00:26:34;;;;;;;21.85;14.77;;;;;;;17.08;69.61;99301.44;4316698;33;32815;-87
2023/05/25 00:29:03;;;;;;;19.27;15.70;;;;;;;16.99;69.99;99298.06;4315754;33;33889;-88
2023/05/25 00:31:32;;;;;;;19.10;15.07;;;;;;;17.01;69.95;99301.53;4329853;33;34397;-88
2023/05/25 00:34:00;;;;;;;19.80;15.57;;;;;;;16.94;70.04;99299.87;4308515;33;34252;-87
2023/05/25 00:36:27;;;;;;;20.27;14.70;;;;;;;17.16;69.32;99300.50;4327966;33;33820;-86
2023/05/25 00:38:55;;;;;;;18.48;14.68;;;;;;;17.37;68.35;99304.59;4327920;33;34447;-87
2023/05/25 00:41:23;;;;;;;19.77;15.18;;;;;;;17.31;68.45;99303.81;4330839;33;34133;-88
2023/05/25 00:43:51;;;;;;;18.95;15.25;;;;;;;17.79;66.75;99312.81;4316377;33;33995;-88
2023/05/25 00:46:18;;;;;;;19.70;14.63;;;;;;;17.93;65.97;99308.25;4318583;33;34848;-87
2023/05/25 00:48:47;;;;;;;19.37;14.65;;;;;;;17.69;66.60;99311.16;4318072;33;33485;-86
2023/05/25 00:51:16;;;;;;;19.67;15.10;;;;;;;17.79;66.16;99312.81;4329687;33;33982;-87
2023/05/25 00:53:43;;;;;;;19.05;14.73;;;;;;;17.63;66.82;99316.50;4319060;33;34240;-88
2023/05/25 00:56:16;;;;;;;18.85;14.80;;;;;;;17.63;66.72;99311.25;4329892;33;33843;-88
2023/05/25 00:58:45;;;;;;;19.12;15.18;;;;;;;17.74;66.46;99314.59;4318483;33;34968;-86
2023/05/25 01:01:14;;;;;;;18.70;14.73;;;;;;;17.71;66.27;99312.88;4328522;33;34860;-88
2023/05/25 01:03:45;;;;;;;20.15;14.82;;;;;;;17.65;66.52;99317.34;4329968;33;34846;-88
2023/05/25 01:06:14;;;;;;;19.20;14.43;;;;;;;17.89;65.84;99317.03;4318284;33;34823;-87
2023/05/25 01:08:48;;;;;;;15.85;12.70;;;;;;;17.88;65.78;99315.31;4318705;33;33851;-88
2023/05/25 01:11:19;;;;;;;16.98;13.60;;;;;;;18.26;64.69;99319.12;4318917;33;34020;-89
2023/05/25 01:13:47;;;;;;;17.33;13.10;;;;;;;18.36;64.08;99315.44;4330195;33;34091;-88
2023/05/25 01:16:15;;;;;;;15.00;11.90;;;;;;;18.43;63.76;99316.19;4319764;33;33831;-88
2023/05/25 01:18:43;;;;;;;17.10;13.50;;;;;;;18.50;63.31;99314.34;4316111;33;33310;-88
2023/05/25 01:21:36;;;;;;;15.57;12.57;;;;;;;18.63;62.69;99319.34;4328309;33;33933;-86
2023/05/25 01:24:31;;;;;;;15.75;12.43;;;;;;;18.42;62.96;99325.84;4329243;33;34579;-87
2023/05/25 01:27:04;;;;;;;18.02;12.93;;;;;;;18.50;62.96;99322.22;4311397;33;34268;-88
2023/05/25 01:29:34;;;;;;;16.83;12.85;;;;;;;18.59;62.56;99322.06;4331043;33;34769;-87
2023/05/25 01:32:03;;;;;;;14.65;11.50;;;;;;;18.86;61.50;99325.97;4317570;33;33575;-87
2023/05/25 01:34:32;;;;;;;14.87;11.18;;;;;;;18.54;62.38;99323.91;4314799;33;34126;-88
2023/05/25 01:37:00;;;;;;;15.93;11.98;;;;;;;18.28;63.45;99330.44;4329920;33;34205;-87
2023/05/25 01:39:28;;;;;;;16.00;11.38;;;;;;;18.63;62.34;99324.59;4320134;33;34343;-87
2023/05/25 01:41:55;;;;;;;15.82;11.45;;;;;;;18.63;62.45;99331.59;4331259;33;33826;-88
2023/05/25 01:44:24;;;;;;;14.95;11.98;;;;;;;18.87;61.57;99328.59;4317781;33;33832;-87
2023/05/25 01:47:03;;;;;;;14.77;11.80;;;;;;;18.78;61.47;99320.88;4318043;33;34165;-88
2023/05/25 01:49:45;;;;;;;17.55;12.75;;;;;;;18.79;61.76;99320.00;4317265;33;33815;-89
2023/05/25 01:52:20;;;;;;;15.02;10.77;;;;;;;18.68;62.08;99327.16;4329949;33;34100;-87
2023/05/25 01:55:18;;;;;;;14.20;11.57;;;;;;;18.67;62.09;99330.66;4317544;33;33777;-88
2023/05/25 01:57:49;;;;;;;13.73;11.10;;;;;;;18.69;62.11;99334.12;4304679;33;34688;-89
2023/05/25 02:00:18;;;;;;;13.93;11.02;;;;;;;18.73;61.99;99335.84;4305540;33;33768;-87
2023/05/25 02:02:47;;;;;;;14.52;11.07;;;;;;;18.54;62.48;99334.41;4331114;33;34134;-87
2023/05/25 02:05:15;;;;;;;16.10;11.45;;;;;;;18.55;62.93;99336.13;4317603;33;33897;-87
2023/05/25 02:07:42;;;;;;;13.82;11.65;;;;;;;18.68;62.44;99335.03;4316449;33;33783;-88
2023/05/25 02:10:10;;;;;;;14.75;10.93;;;;;;;18.56;62.86;99335.22;4330067;33;33642;-88
2023/05/25 02:12:37;;;;;;;15.25;12.10;;;;;;;18.60;62.67;99342.16;4328688;33;33415;-89
2023/05/25 02:15:05;;;;;;;14.27;10.65;;;;;;;18.56;62.41;99328.25;4329236;33;33823;-87
2023/05/25 02:17:35;;;;;;;15.15;11.12;;;;;;;18.74;61.93;99329.69;4318164;33;34817;-88
2023/05/25 02:20:05;;;;;;;15.38;11.50;;;;;;;18.87;61.28;99333.84;4316028;33;32420;-88
2023/05/25 02:22:33;;;;;;;14.35;11.05;;;;;;;18.79;61.62;99345.37;4328766;33;33748;-88
2023/05/25 02:25:01;;;;;;;16.10;11.70;;;;;;;18.53;62.29;99338.78;4329516;33;34122;-88
2023/05/25 02:27:29;;;;;;;15.52;11.68;;;;;;;18.51;61.91;99334.44;4330533;33;34278;-88
2023/05/25 02:29:56;;;;;;;15.55;11.43;;;;;;;18.47;62.15;99333.62;4316148;33;35002;-87
2023/05/25 02:32:24;;;;;;;14.80;11.73;;;;;;;18.46;62.26;99340.66;4318589;33;34660;-88
2023/05/25 02:34:52;;;;;;;14.23;11.60;;;;;;;18.45;62.22;99335.44;4329614;33;32765;-90
2023/05/25 02:37:20;;;;;;;15.50;12.00;;;;;;;18.44;62.07;99339.78;4329047;33;34343;-91
2023/05/25 02:39:48;;;;;;;14.40;11.05;;;;;;;18.34;62.43;99340.84;4327945;33;34430;-89
2023/05/25 02:42:15;;;;;;;15.55;11.35;;;;;;;18.46;61.94;99339.78;4319016;33;34944;-88
2023/05/25 02:44:47;;;;;;;15.13;10.65;;;;;;;18.44;62.07;99352.06;4330107;33;33721;-87
2023/05/25 02:47:15;;;;;;;16.73;10.85;;;;;;;18.30;62.66;99347.03;4327775;33;33908;-87
2023/05/25 02:49:44;;;;;;;15.63;10.98;;;;;;;18.34;62.52;99353.97;4330730;33;33260;-88
2023/05/25 02:52:11;;;;;;;14.70;11.40;;;;;;;18.29;62.67;99350.53;4306993;33;34609;-91
2023/05/25 02:54:40;;;;;;;17.12;11.73;;;;;;;18.32;62.71;99349.62;4316549;33;34114;-88
2023/05/25 02:57:09;;;;;;;16.60;11.50;;;;;;;18.34;62.72;99353.97;4329285;33;34420;-87
2023/05/25 02:59:36;;;;;;;15.13;11.20;;;;;;;18.58;62.14;99351.84;4329318;33;34408;-87
2023/05/25 03:02:04;;;;;;;17.85;11.25;;;;;;;18.50;62.23;99357.22;4328713;33;33557;-87
2023/05/25 03:04:33;;;;;;;14.13;10.80;;;;;;;18.47;62.35;99360.75;4314654;33;35503;-87
2023/05/25 03:07:01;;;;;;;15.57;11.10;;;;;;;18.36;62.96;99360.06;4329056;33;35012;-87
2023/05/25 03:09:29;;;;;;;14.80;11.12;;;;;;;18.35;63.24;99366.19;4328908;33;33837;-87
2023/05/25 03:11:59;;;;;;;15.30;11.38;;;;;;;18.32;63.50;99363.63;4314595;33;33846;-90
2023/05/25 03:14:26;;;;;;;14.98;11.73;;;;;;;18.33;63.71;99367.97;4330128;33;33791;-90
2023/05/25 03:16:55;;;;;;;15.20;12.13;;;;;;;18.46;63.64;99364.28;4326674;33;33843;-89
2023/05/25 03:19:22;;;;;;;15.60;11.60;;;;;;;18.48;63.82;99372.12;4327546;33;33718;-88
2023/05/25 03:21:50;;;;;;;13.68;11.35;;;;;;;18.46;64.06;99377.41;4326021;33;34115;-90
2023/05/25 03:24:18;;;;;;;18.08;12.75;;;;;;;18.55;63.88;99370.25;4327971;33;33705;-88
2023/05/25 03:26:46;;;;;;;17.35;13.70;;;;;;;18.12;65.60;99368.31;4326873;33;33854;-88
2023/05/25 03:29:13;;;;;;;15.95;12.65;;;;;;;18.00;66.32;99369.34;4328587;33;33803;-88
2023/05/25 03:31:41;;;;;;;16.27;13.10;;;;;;;18.14;65.53;99371.75;4318476;33;33668;-89
2023/05/25 03:34:09;;;;;;;18.73;14.23;;;;;;;17.68;66.64;99373.22;4329290;33;35234;-89
2023/05/25 03:36:37;;;;;;;19.60;14.07;;;;;;;17.67;66.40;99370.63;4326807;33;34412;-88
2023/05/25 03:39:05;;;;;;;18.92;13.93;;;;;;;17.88;65.47;99370.41;4316517;33;34612;-88
2023/05/25 03:41:33;;;;;;;17.37;14.05;;;;;;;17.68;66.17;99380.22;4330433;33;34081;-88
2023/05/25 03:44:01;;;;;;;20.27;14.63;;;;;;;18.23;64.64;99374.28;4316358;33;34259;-89
2023/05/25 03:46:28;;;;;;;18.02;14.07;;;;;;;17.96;65.53;99375.53;4329964;33;34251;-88
2023/05/25 03:48:56;;;;;;;18.75;13.75;;;;;;;18.37;63.91;99374.94;4328513;33;34596;-88
2023/05/25 03:51:23;;;;;;;18.75;13.85;;;;;;;18.16;64.30;99375.25;4329277;33;35478;-88
2023/05/25 03:53:51;;;;;;;20.92;14.73;;;;;;;18.14;64.31;99383.13;4329616;33;34793;-91
2023/05/25 03:56:19;;;;;;;18.42;14.32;;;;;;;18.17;63.94;99376.97;4329692;33;35088;-89
2023/05/25 03:58:46;;;;;;;20.92;14.87;;;;;;;18.03;64.55;99378.91;4316171;33;33341;-89
2023/05/25 04:01:13;;;;;;;19.83;14.82;;;;;;;18.02;64.90;99391.16;4316891;33;33939;-89
2023/05/25 04:03:41;;;;;;;22.42;14.18;;;;;;;17.98;64.65;99386.84;4325208;33;34902;-90
2023/05/25 04:06:09;;;;;;;18.62;14.60;;;;;;;17.98;64.99;99394.72;4317822;33;33808;-89
2023/05/25 04:08:36;;;;;;;20.60;14.73;;;;;;;17.97;64.91;99396.50;4304001;33;32938;-88
2023/05/25 04:11:04;;;;;;;18.90;14.32;;;;;;;18.29;63.85;99395.16;4305229;33;34739;-87
2023/05/25 04:13:35;;;;;;;18.55;14.32;;;;;;;18.27;63.94;99399.56;4327623;33;33942;-88
2023/05/25 04:16:02;;;;;;;18.02;13.32;;;;;;;18.60;62.77;99399.94;4329476;33;34026;-88
2023/05/25 04:18:30;;;;;;;19.10;13.40;;;;;;;18.95;61.84;99404.66;4330747;33;33453;-90
2023/05/25 04:20:58;;;;;;;18.25;13.25;;;;;;;19.19;60.96;99398.06;4321541;33;33710;-89
2023/05/25 04:23:26;;;;;;;17.52;12.90;;;;;;;19.57;59.78;99399.09;4331045;33;34964;-89
2023/05/25 04:25:54;;;;;;;19.55;13.90;;;;;;;19.63;59.43;99404.28;4318156;33;33969;-89
2023/05/25 04:28:22;;;;;;;18.42;13.10;;;;;;;19.33;60.10;99411.84;4328308;33;33459;-89
2023/05/25 04:30:50;;;;;;;15.30;12.48;;;;;;;19.84;59.05;99406.44;4327367;33;33958;-89
2023/05/25 04:33:19;;;;;;;18.75;13.62;;;;;;;19.87;59.05;99403.75;4329656;33;32852;-89
2023/05/25 04:35:49;;;;;;;21.10;13.85;;;;;;;19.79;59.25;99410.94;4330464;33;34144;-89
2023/05/25 04:38:17;;;;;;;17.45;12.98;;;;;;;19.65;59.48;99410.34;4330942;33;34296;-89
2023/05/25 04:40:47;;;;;;;20.37;15.40;;;;;;;19.41;60.38;99409.91;4328972;33;33579;-88
2023/05/25 04:43:16;;;;;;;21.25;13.98;;;;;;;19.67;58.99;99403.31;4329341;33;34218;-90
2023/05/25 04:45:45;;;;;;;21.60;14.23;;;;;;;19.13;61.15;99413.94;4331121;33;34230;-89
2023/05/25 04:48:14;;;;;;;18.92;13.40;;;;;;;19.39;60.58;99414.31;4329276;33;34462;-89
2023/05/25 04:50:42;;;;;;;19.62;14.40;;;;;;;19.41;60.88;99399.41;4331244;33;33896;-90
2023/05/25 04:53:09;;;;;;;18.55;13.48;;;;;;;19.38;61.08;99407.34;4330507;33;34222;-90
2023/05/25 04:55:38;;;;;;;18.33;13.02;;;;;;;19.59;60.47;99405.22;4328442;33;35118;-89
2023/05/25 04:58:06;;;;;;;17.77;14.30;;;;;;;19.72;60.13;99411.97;4314065;33;34081;-89
2023/05/25 05:00:33;;;;;;;20.37;14.10;;;;;;;19.31;61.52;99416.22;4330537;33;33960;-90
2023/05/25 05:03:01;;;;;;;19.15;14.45;;;;;;;19.36;61.48;99422.28;4312295;33;34145;-89
2023/05/25 05:05:29;;;;;;;15.32;13.02;;;;;;;19.31;61.50;99413.59;4331432;33;33458;-91
2023/05/25 05:07:58;;;;;;;19.42;14.02;;;;;;;19.36;61.63;99419.66;4329593;33;34536;-89
2023/05/25 05:10:26;;;;;;;20.23;14.35;;;;;;;19.36;61.49;99419.66;4330197;33;34557;-90
2023/05/25 05:12:55;;;;;;;20.70;14.00;;;;;;;19.74;60.82;99419.84;4330652;33;34256;-90
2023/05/25 05:15:22;;;;;;;21.80;14.38;;;;;;;19.50;61.12;99416.75;4317369;33;32641;-89
2023/05/25 05:17:50;;;;;;;17.10;12.45;;;;;;;20.00;60.49;99419.28;4331383;33;34593;-88
2023/05/25 05:20:18;;;;;;;18.48;13.73;;;;;;;19.83;61.16;99423.13;4317479;33;33556;-88
2023/05/25 05:22:45;;;;;;;17.67;13.30;;;;;;;20.24;60.15;99426.66;4327696;33;33979;-88
2023/05/25 05:25:13;;;;;;;25.67;13.70;;;;;;;20.38;58.80;99432.47;4330711;33;34259;-88
2023/05/25 05:27:40;;;;;;;17.33;11.60;;;;;;;20.61;58.45;99424.06;4330025;33;33368;-89
2023/05/25 05:30:08;;;;;;;18.42;12.77;;;;;;;20.54;58.37;99429.50;4317735;33;33884;-88
2023/05/25 05:32:36;;;;;;;16.85;11.98;;;;;;;20.83;57.28;99428.78;4317556;33;34591;-86
2023/05/25 05:35:04;;;;;;;16.67;12.30;;;;;;;21.24;56.67;99418.97;4317718;33;35109;-86
2023/05/25 05:37:32;;;;;;;15.88;11.45;;;;;;;20.98;57.28;99424.91;4331231;33;33736;-87
2023/05/25 05:40:00;;;;;;;16.45;11.00;;;;;;;21.46;56.39;99419.28;4331379;33;33635;-89
2023/05/25 05:42:27;;;;;;;16.08;11.75;;;;;;;21.89;56.37;99424.19;4317902;33;33669;-88
2023/05/25 05:44:55;;;;;;;17.58;11.20;;;;;;;21.48;56.96;99425.38;4330261;33;34364;-89
2023/05/25 05:47:22;;;;;;;15.73;11.27;;;;;;;21.58;55.83;99424.22;4317557;33;34699;-89
2023/05/25 05:49:50;;;;;;;16.65;12.05;;;;;;;21.97;55.46;99416.06;4330859;33;34210;-88
2023/05/25 05:52:18;;;;;;;16.62;11.77;;;;;;;21.61;55.81;99430.28;4331021;33;35113;-89
2023/05/25 05:54:45;;;;;;;15.43;11.07;;;;;;;21.44;56.20;99424.63;4330298;33;34294;-89
2023/05/25 05:57:14;;;;;;;16.95;11.12;;;;;;;21.63;56.04;99424.97;4327517;33;33857;-89
2023/05/25 05:59:42;;;;;;;20.08;11.50;;;;;;;21.84;56.47;99421.69;4331168;33;33761;-90
2023/05/25 06:02:09;;;;;;;14.38;11.52;;;;;;;22.12;54.78;99428.78;4330983;33;33330;-89
2023/05/25 06:04:37;;;;;;;17.37;11.55;;;;;;;22.31;54.84;99427.38;4330157;33;34131;-88
2023/05/25 06:07:05;;;;;;;20.77;11.65;;;;;;;22.37;54.14;99426.31;4313693;33;32960;-89
2023/05/25 06:09:34;;;;;;;16.67;11.32;;;;;;;21.51;55.93;99434.06;4331335;33;33517;-90
2023/05/25 06:12:05;;;;;;;14.52;10.95;;;;;;;21.55;56.10;99442.75;4331282;33;35099;-90
2023/05/25 06:14:33;;;;;;;15.95;11.18;;;;;;;21.37;56.70;99439.75;4305621;33;33119;-90
2023/05/25 06:17:01;;;;;;;18.08;11.05;;;;;;;21.76;56.31;99442.16;4330765;33;33845;-90
2023/05/25 06:19:29;;;;;;;19.77;12.43;;;;;;;21.87;56.07;99442.72;4317357;33;33871;-89
2023/05/25 06:21:56;;;;;;;13.93;11.25;;;;;;;22.28;54.47;99447.75;4330702;33;35158;-90
2023/05/25 06:24:24;;;;;;;15.65;11.40;;;;;;;22.41;54.38;99442.94;4330710;33;34831;-89
2023/05/25 06:26:52;;;;;;;17.62;12.15;;;;;;;22.42;53.90;99442.00;4330811;33;33625;-90
2023/05/25 06:29:19;;;;;;;21.70;12.40;;;;;;;22.47;53.37;99448.03;4317009;33;33782;-90
2023/05/25 06:31:47;;;;;;;16.48;12.30;;;;;;;22.16;54.49;99443.69;4330881;33;34340;-90
2023/05/25 06:34:14;;;;;;;17.27;11.85;;;;;;;22.27;54.85;99443.34;4330601;33;33877;-90
2023/05/25 06:36:42;;;;;;;15.65;11.45;;;;;;;22.80;53.61;99444.28;4317635;33;33234;-90
2023/05/25 06:39:09;;;;;;;19.52;13.05;;;;;;;22.77;53.32;99447.06;4330722;33;34558;-90
2023/05/25 06:41:38;;;;;;;15.57;11.35;;;;;;;22.68;52.72;99447.34;4330210;33;35056;-90
2023/05/25 06:44:06;;;;;;;18.62;14.25;;;;;;;21.59;56.30;99447.03;4317053;33;34312;-89
2023/05/25 06:46:38;;;;;;;16.87;12.75;;;;;;;21.38;57.43;99449.38;4330787;33;34970;-89
2023/05/25 06:49:07;;;;;;;17.77;13.13;;;;;;;21.35;57.74;99449.44;4317395;33;32883;-88
2023/05/25 06:51:36;;;;;;;17.48;11.82;;;;;;;21.83;57.24;99453.44;4330170;33;34276;-87
2023/05/25 06:54:03;;;;;;;17.52;11.60;;;;;;;21.95;56.57;99457.47;4331223;33;33966;-88
2023/05/25 06:56:31;;;;;;;17.00;10.60;;;;;;;22.61;54.46;99443.16;4330494;33;34363;-87
2023/05/25 06:58:58;;;;;;;15.80;11.70;;;;;;;22.90;54.49;99451.94;4330687;33;33872;-88
2023/05/25 07:01:26;;;;;;;16.10;11.07;;;;;;;22.57;54.37;99449.44;4330424;33;33762;-88
2023/05/25 07:03:54;;;;;;;17.85;11.60;;;;;;;22.62;55.26;99452.84;4330845;33;33984;-88
2023/05/25 07:06:21;;;;;;;14.73;10.68;;;;;;;22.14;56.01;99458.72;4330548;33;34393;-87
2023/05/25 07:08:48;;;;;;;15.02;10.80;;;;;;;22.22;56.30;99456.69;4330720;33;34415;-88
2023/05/25 07:11:19;;;;;;;16.60;11.18;;;;;;;22.32;55.85;99454.66;4330484;33;34699;-88
2023/05/25 07:13:47;;;;;;;18.60;12.13;;;;;;;22.55;55.32;99467.16;4317156;33;33865;-89
2023/05/25 07:16:14;;;;;;;18.80;11.35;;;;;;;22.44;54.50;99464.84;4330365;33;34479;-90
2023/05/25 07:18:42;;;;;;;17.37;11.77;;;;;;;22.53;54.97;99463.69;4330426;33;34832;-90
2023/05/25 07:21:10;;;;;;;18.27;11.15;;;;;;;22.29;55.87;99463.53;4330275;33;34476;-87
2023/05/25 07:23:39;;;;;;;13.85;10.90;;;;;;;22.19;58.08;99464.69;4317204;33;34849;-88
2023/05/25 07:26:07;;;;;;;15.98;11.52;;;;;;;22.72;54.66;99467.47;4330391;33;34613;-89
2023/05/25 07:28:35;;;;;;;14.52;10.35;;;;;;;22.67;54.91;99463.25;4317302;33;34016;-88
2023/05/25 07:31:02;;;;;;;17.35;11.85;;;;;;;23.35;53.58;99464.56;4330064;33;34992;-89
2023/05/25 07:33:30;;;;;;;16.50;10.25;;;;;;;22.85;54.60;99465.31;4330497;33;34928;-89
2023/05/25 07:35:57;;;;;;;17.50;11.85;;;;;;;23.68;52.76;99463.41;4330043;33;33550;-89
2023/05/25 07:38:25;;;;;;;19.58;11.43;;;;;;;23.06;54.17;99463.75;4330118;33;34345;-89
2023/05/25 07:40:53;;;;;;;15.38;10.80;;;;;;;22.68;54.77;99465.84;4330310;33;33766;-88
2023/05/25 07:43:21;;;;;;;16.65;11.15;;;;;;;22.89;54.53;99469.56;4330641;33;35238;-88
2023/05/25 07:45:48;;;;;;;18.75;11.27;;;;;;;22.63;54.85;99470.41;4330305;33;33450;-89
2023/05/25 07:48:17;;;;;;;14.25;10.35;;;;;;;23.44;53.99;99474.81;4330467;33;33004;-90
2023/05/25 07:50:45;;;;;;;14.13;11.07;;;;;;;23.09;54.54;99473.38;4329064;33;33968;-90
2023/05/25 07:53:12;;;;;;;15.35;9.85;;;;;;;23.35;53.28;99480.44;4329934;33;34696;-89
2023/05/25 07:55:40;;;;;;;17.02;10.38;;;;;;;23.07;54.06;99481.38;4316306;33;32934;-90
2023/05/25 07:58:07;;;;;;;15.43;11.25;;;;;;;23.32;53.63;99470.81;4330092;33;33653;-89
2023/05/25 08:00:35;;;;;;;13.90;9.70;;;;;;;22.54;55.39;99470.69;4329927;33;33854;-88
2023/05/25 08:03:03;;;;;;;17.10;11.48;;;;;;;23.24;54.24;99473.72;4330302;33;34604;-88
2023/05/25 08:05:31;;;;;;;18.23;10.63;;;;;;;22.64;55.04;99472.12;4330027;33;34708;-88
2023/05/25 08:07:58;;;;;;;15.75;9.52;;;;;;;22.70;54.47;99471.94;4329442;33;33889;-89
2023/05/25 08:10:30;;;;;;;13.00;8.80;;;;;;;22.96;54.75;99472.94;4329878;33;35078;-89
2023/05/25 08:12:58;;;;;;;14.25;9.88;;;;;;;23.27;54.89;99465.69;4329721;33;33986;-89
2023/05/25 08:15:26;;;;;;;16.17;9.77;;;;;;;23.15;54.16;99468.75;4316191;33;33859;-90
2023/05/25 08:17:55;;;;;;;16.50;11.40;;;;;;;23.44;55.12;99475.66;4327087;33;34513;-87
2023/05/25 08:20:26;;;;;;;17.45;10.18;;;;;;;23.09;53.65;99471.59;4315269;33;34321;-86
2023/05/25 08:22:53;;;;;;;13.73;10.00;;;;;;;23.69;52.62;99475.72;4324842;33;33970;-88
2023/05/25 08:25:21;;;;;;;12.13;9.02;;;;;;;23.46;54.67;99475.63;4329876;33;33311;-87
2023/05/25 08:27:49;;;;;;;25.67;10.63;;;;;;;23.30;53.36;99473.53;4330085;33;34542;-87
2023/05/25 08:30:16;;;;;;;14.77;10.15;;;;;;;23.54;53.34;99476.22;4329567;33;33705;-88
2023/05/25 08:32:44;;;;;;;17.80;9.90;;;;;;;23.09;53.54;99479.53;4329324;33;34029;-91
2023/05/25 08:35:12;;;;;;;17.75;9.52;;;;;;;23.54;52.73;99470.94;4303797;33;33689;-90
2023/05/25 08:37:42;;;;;;;21.90;10.27;;;;;;;23.48;53.11;99476.44;4315124;33;33661;-90
2023/05/25 08:40:15;;;;;;;13.52;10.48;;;;;;;23.33;54.16;99484.91;4329413;33;34060;-89
2023/05/25 08:42:43;;;;;;;13.10;9.10;;;;;;;23.10;54.54;99481.25;4325897;33;34995;-89
2023/05/25 08:45:11;;;;;;;12.43;8.65;;;;;;;23.21;54.26;99478.25;4304129;33;32267;-88
2023/05/25 08:48:00;;;;;;;10.90;8.38;;;;;;;23.66;51.53;99478.47;4311812;33;34463;-92
2023/05/25 08:50:29;;;;;;;13.68;8.55;;;;;;;23.50;51.51;99482.53;4315068;33;35170;-87
2023/05/25 08:53:01;;;;;;;13.98;9.45;;;;;;;23.85;51.08;99485.75;4309751;33;34426;-89
2023/05/25 08:55:34;;;;;;;11.02;8.05;;;;;;;23.27;52.28;99473.63;4301821;33;34633;-88
2023/05/25 08:58:09;;;;;;;13.18;8.95;;;;;;;23.95;51.18;99473.91;4315532;33;33747;-89
2023/05/25 09:00:41;;;;;;;12.35;8.63;;;;;;;24.27;50.03;99478.84;4316507;33;33823;-87
2023/05/25 09:03:19;;;;;;;12.85;8.52;;;;;;;24.51;50.32;99479.72;4331895;33;33730;-88
2023/05/25 09:05:47;;;;;;;14.02;8.75;;;;;;;24.33;49.57;99484.84;4318950;33;34478;-88
2023/05/25 09:08:16;;;;;;;12.98;8.32;;;;;;;24.55;48.66;99480.47;4305947;33;33646;-89
2023/05/25 09:10:43;;;;;;;10.80;7.65;;;;;;;24.37;49.00;99476.69;4316832;33;32440;-88
2023/05/25 09:13:11;;;;;;;12.93;8.77;;;;;;;24.32;49.71;99481.34;4316755;33;33812;-90
2023/05/25 09:15:49;;;;;;;12.43;8.30;;;;;;;24.23;49.72;99474.56;4328890;33;33490;-89
2023/05/25 09:18:17;;;;;;;11.68;7.53;;;;;;;24.62;50.44;99479.28;4316645;33;34660;-87
2023/05/25 09:20:45;;;;;;;14.80;7.90;;;;;;;24.15;51.76;99474.00;4331256;33;33900;-88
2023/05/25 09:23:14;;;;;;;12.10;8.38;;;;;;;24.60;50.42;99474.97;4330714;33;34258;-86
2023/05/25 09:25:43;;;;;;;10.02;7.22;;;;;;;25.03;49.84;99475.87;4320709;33;35023;-87
2023/05/25 09:28:10;;;;;;;9.90;7.18;;;;;;;25.43;48.67;99469.78;4342284;33;33966;-86
2023/05/25 09:30:41;;;;;;;10.43;8.00;;;;;;;25.72;46.58;99469.38;4338675;33;32876;-86
2023/05/25 09:33:13;;;;;;;10.70;7.78;;;;;;;25.03;48.50;99471.44;4318025;33;35741;-87
2023/05/25 09:35:40;;;;;;;12.32;8.55;;;;;;;25.82;48.71;99475.16;4331271;33;33657;-87
2023/05/25 09:38:08;;;;;;;14.65;8.88;;;;;;;25.31;47.91;99468.53;4331192;33;33658;-88
2023/05/25 09:40:36;;;;;;;13.45;8.75;;;;;;;25.19;49.58;99476.97;4318325;33;33871;-88
2023/05/25 09:43:04;;;;;;;12.15;8.75;;;;;;;24.27;50.96;99484.13;4331244;33;33878;-88
2023/05/25 09:45:32;;;;;;;13.45;8.57;;;;;;;24.54;50.53;99491.97;4331037;33;33681;-89
2023/05/25 09:48:00;;;;;;;11.32;8.35;;;;;;;24.37;49.45;99478.50;4317705;33;32575;-87
2023/05/25 09:50:28;;;;;;;13.23;9.27;;;;;;;24.55;50.47;99485.75;4330521;33;33843;-90
2023/05/25 09:52:58;;;;;;;14.57;8.88;;;;;;;24.75;49.19;99479.66;4315320;33;33990;-92
2023/05/25 09:55:27;;;;;;;16.50;8.80;;;;;;;25.07;48.78;99488.94;4310323;33;33757;-92
2023/05/25 09:58:12;;;;;;;11.20;7.25;;;;;;;25.33;48.49;99471.09;4303475;33;33310;-91
2023/05/25 10:00:40;;;;;;;11.50;7.57;;;;;;;25.05;49.29;99493.47;4329800;33;34739;-89
2023/05/25 10:03:08;;;;;;;10.43;7.28;;;;;;;24.83;46.81;99489.97;4322281;33;34932;-93
2023/05/25 10:05:35;;;;;;;10.13;7.25;;;;;;;25.03;48.20;99492.66;4330882;33;33612;-90
2023/05/25 10:08:03;;;;;;;9.48;6.90;;;;;;;25.28;46.74;99483.72;4330232;33;34745;-93
2023/05/25 10:10:31;;;;;;;11.23;7.12;;;;;;;25.33;47.85;99487.03;4305982;33;33875;-91
2023/05/25 10:12:59;;;;;;;16.08;7.43;;;;;;;25.70;47.52;99481.84;4323494;33;34768;-91
2023/05/25 10:15:27;;;;;;;9.52;6.18;;;;;;;25.76;47.42;99482.50;4330876;33;33699;-92
2023/05/25 10:17:55;;;;;;;13.13;7.25;;;;;;;25.36;45.39;99477.13;4325483;33;34734;-88
2023/05/25 10:20:24;;;;;;;10.57;6.95;;;;;;;24.82;46.74;99481.16;4302482;33;35038;-88
2023/05/25 10:22:59;;;;;;;10.07;6.97;;;;;;;24.74;47.33;99472.66;4328942;33;35190;-91
2023/05/25 10:25:33;;;;;;;9.95;6.75;;;;;;;25.33;49.84;99476.41;4319145;33;36311;-93
2023/05/25 10:28:06;;;;;;;11.50;7.55;;;;;;;25.39;44.89;99473.50;4317992;33;34052;-92
2023/05/25 10:30:35;;;;;;;10.23;6.53;;;;;;;25.63;45.37;99464.44;4330374;33;34292;-93
2023/05/25 10:33:04;;;;;;;9.50;6.28;;;;;;;25.76;46.74;99458.59;4330595;33;33820;-93
2023/05/25 10:35:31;;;;;;;9.10;6.15;;;;;;;25.85;47.53;99467.06;4317425;33;34471;-92
2023/05/25 10:38:17;;;;;;;;;;;;;;;25.40;46.92;99461.94;4320114;33;33749;-90
2023/05/25 10:40:49;;;;;;;9.57;6.32;;;;;;;25.45;46.69;99450.19;4331060;33;34163;-91
2023/05/25 10:43:17;;;;;;;11.10;6.32;;;;;;;26.04;45.71;99453.78;4317971;33;34335;-91
2023/05/25 10:45:46;;;;;;;9.75;6.15;;;;;;;25.62;45.32;99457.44;4330884;33;33302;-89
2023/05/25 10:48:17;;;;;;;9.93;6.05;;;;;;;25.43;48.19;99451.22;4324404;33;34076;-90
2023/05/25 10:50:50;;;;;;;9.57;6.15;;;;;;;25.53;46.32;99452.50;4330720;33;34898;-91
2023/05/25 10:53:20;;;;;;;7.95;5.53;;;;;;;25.47;46.63;99443.03;4330463;33;33777;-90
2023/05/25 10:55:50;;;;;;;9.80;6.78;;;;;;;25.58;46.66;99449.69;4328989;33;34418;-90
2023/05/25 10:58:20;;;;;;;7.78;5.68;;;;;;;25.34;44.90;99449.78;4330820;33;33623;-89
2023/05/25 11:01:01;;;;;;;8.65;5.75;;;;;;;25.59;43.68;99452.25;4330394;33;34280;-90
2023/05/25 11:03:52;;;;;;;9.98;6.07;;;;;;;25.99;43.74;99449.59;4330527;33;33994;-90
2023/05/25 11:06:21;;;;;;;9.07;5.80;;;;;;;25.96;44.49;99448.84;4330873;33;34330;-91
2023/05/25 11:08:56;;;;;;;9.95;6.15;;;;;;;25.88;45.54;99450.13;4330767;33;34711;-90
2023/05/25 11:11:41;;;;;;;8.93;5.97;;;;;;;25.51;45.57;99450.88;4330839;33;33927;-90
2023/05/25 11:14:22;;;;;;;8.57;5.37;;;;;;;25.39;46.51;99454.94;4330801;33;33869;-90
2023/05/25 11:17:10;;;;;;;7.55;5.35;;;;;;;25.43;45.88;99440.59;4330823;33;33776;-91
2023/05/25 11:19:42;;;;;;;10.23;6.97;;;;;;;26.00;44.09;99436.28;4317906;33;35034;-91
2023/05/25 11:22:16;;;;;;;9.43;5.68;;;;;;;25.17;46.45;99439.06;4316908;33;34215;-91
2023/05/25 11:24:47;;;;;;;9.38;5.65;;;;;;;25.16;47.28;99432.88;4329412;33;34212;-91
2023/05/25 11:27:21;;;;;;;10.02;6.05;;;;;;;25.44;47.65;99434.34;4330073;33;33472;-91
2023/05/25 11:29:50;;;;;;;8.88;5.22;;;;;;;25.53;46.71;99435.72;4317388;33;33912;-90